AirNav   Everest Fuels
 
 1374 users online  

KCSB Cambridge Municipal Airport
Cambridge, Nebraska, USA

GOING TO CAMBRIDGE?


FAA INFORMATION EFFECTIVE 03 NOVEMBER 2022

Location

FAA Identifier: CSB
Lat/Long: 40-18-23.6950N 100-09-43.4600W
40-18.394917N 100-09.724333W
40.3065819,-100.1620722
(estimated)
Elevation: 2414.2 ft. / 735.8 m (surveyed)
Variation: 05E (2020)
From city: 2 miles NE of CAMBRIDGE, NE
Time zone: UTC -6 (UTC -5 during Daylight Saving Time)
Zip code: 69022

Airport Operations

Airport use: Open to the public
Activation date: 08/1963
Control tower: no
ARTCC: DENVER CENTER
FSS: COLUMBUS FLIGHT SERVICE STATION
NOTAMs facility: OLU (NOTAM-D service available)
Attendance: MON-SAT 0800-1800
Wind indicator: lighted
Segmented circle: yes
Lights: MIRL RY 15/33 PRESET ON LOW INTST; TO INCR INTST & ACTVT PAPI RYS 15 & 33 - CTAF.
Beacon: white-green (lighted land airport)
Operates sunset to sunrise.

Airport Communications

CTAF/UNICOM: 122.8
  • APCH/DEP CTL SVC PRVDD BY DENVER ARTCC (ZDV) ON FREQS 132.7/226.675 (NORTH PLATTE RCAG).

Nearby radio navigation aids

VOR radial/distance  VOR name  Freq  Var
MCKr065/20.7MC COOK VOR/DME115.3008E
OZBr183/(34.6)COZAD VOR109.0009E
HCTr093/35.9HAYES CENTER VORTAC117.7011E

 
NDB name  Hdg/Dist  Freq  Var  ID
NORTON327/29.823008ENRN -. .-. -.
OBERLIN025/33.434106EOIN --- .. -.

Airport Services

Fuel available: 100LL
100LL:FOR FUEL AFTER HRS CALL 308-697-8624.
Parking: hangars and tiedowns
Airframe service: MAJOR
Powerplant service: MAJOR
Bottled oxygen: NONE
Bulk oxygen: NONE

Runway Information

Runway 15/33

Dimensions: 4098 x 60 ft. / 1249 x 18 m
Surface: concrete, in excellent condition
Weight bearing capacity: 
PCN 10 /R/B/W/T
Single wheel: 12.0
Runway edge lights: medium intensity
RUNWAY 15  RUNWAY 33
Latitude: 40-18.700500N40-18.089333N
Longitude: 100-09.911333W100-09.537333W
Elevation: 2413.4 ft.2399.0 ft.
Traffic pattern: leftleft
Runway heading: 150 magnetic, 155 true330 magnetic, 335 true
Markings: nonprecision, in good conditionnonprecision, in good condition
Visual slope indicator: 2-light PAPI on left (3.00 degrees glide path)2-light PAPI on left (3.00 degrees glide path)
Touchdown point: yes, no lightsyes, no lights
Obstructions: none20 ft. pole, 713 ft. from runway, 268 ft. right of centerline, 25:1 slope to clear
CROPS OFF RWY 33 END.

Airport Ownership and Management from official FAA records

Ownership: Publicly-owned
Owner: CAMBRIDGE AIRPORT AUTHORITY
P.O. BOX 250
CAMBRIDGE, NE 69022-0250
Phone 308-697-4050
Manager: GOLDEN PLAINS AVIAT / WESLEY HOCK
72279 ROAD 410
CAMBRIDGE, NE 69022-3606
Phone 308-697-8624

Airport Operational Statistics

Aircraft based on the field: 14
Single engine airplanes: 12
Multi engine airplanes: 1
Helicopters: 1
    
Aircraft operations: avg 134/week *
79% local general aviation
18% transient general aviation
2% air taxi
1% military
* for 12-month period ending 02 August 2021

Additional Remarks

FOR CD CTC DENVER ARTCC AT 303-651-4257.

Instrument Procedures

NOTE: All procedures below are presented as PDF files. If you need a reader for these files, you should download the free Adobe Reader.

NOT FOR NAVIGATION. Please procure official charts for flight.
FAA instrument procedures published for use from 03 November 2022 at 0901Z to 01 December 2022 at 0900Z.

 
IAPs - Instrument Approach Procedures
RNAV (GPS) RWY 15   download (192KB)
RNAV (GPS) RWY 33   download (204KB)
NOTE: Special Take-Off Minimums/Departure Procedures apply   download (186KB)

Other nearby airports with instrument procedures:

KMCK - Mc Cook Ben Nelson Regional Airport (21 nm W)
47V - Curtis Municipal Airport (24 nm NW)
KNRN - Norton Municipal Airport (30 nm SE)
KOIN - Oberlin Municipal Airport (33 nm SW)
KLXN - Jim Kelly Field Airport (34 nm NE)
 
Loc | Ops | Rwys | IFR | FBO | Links
Com | Nav | Svcs | Stats | Notes

AirBoss

 
Area around KCSB (Cambridge Municipal Airport)
 
Road maps at: MapQuest Bing Google
 
Aerial photo
WARNING: Photo may not be current or correct
Aerial photo of KCSB (Cambridge Municipal Airport)
Do you have a better or more recent aerial photo of Cambridge Municipal Airport that you would like to share? If so, please send us your photo.

 
Sectional chart

 
Airport distance calculator
Flying to Cambridge Municipal Airport? Find the distance to fly.

From to KCSB

Sunrise and sunset
Times for 30-Nov-2022
 Local
(UTC-6)
 Zulu
(UTC)
Morning civil twilight07:1413:14
Sunrise07:4413:44
Sunset17:1523:15
Evening civil twilight17:4523:45

Current date and time
Zulu (UTC)  30-Nov-2022 14:40:52
Local (UTC-6)  30-Nov-2022 08:40:52
 
METAR
KMCK 
20nm W 
301353Z AUTO 25011KT 10SM CLR M15/M17 A3033 RMK AO2 SLP320 T11501172
KNRN 
30nm SE 
301415Z AUTO 27006KT 10SM CLR M12/M15 A3038 RMK AO2
KOIN 
33nm SW 
301415Z AUTO 26004KT 10SM CLR M15/M16 A3038 RMK AO1 T11461163
KLXN 
34nm NE 
301415Z AUTO 28005KT 10SM CLR M14/M17 A3030 RMK AO2 T11431170
KHDE 
40nm E 
301415Z AUTO 29006KT 10SM CLR M12/M16 A3031 RMK AO2 T11251163
TAF
KMCK 
20nm W 
301126Z 3012/0112 27006KT P6SM SKC FM301900 19010KT P6SM SKC FM302200 15009KT P6SM SKC FM010300 15013KT P6SM FEW250 WS020/18045KT
NOTAMs
Click for the latest NOTAMs
NOTAMs are issued by the DoD/FAA and will open in a separate window not controlled by AirNav.

 

 
 

FBO, Fuel Providers, and Aircraft Ground Support

  
 Business Name 
 
 Contact 
 
 Services / Description 
 
Fuel Prices
 
Comments
  
Golden Plains Aviation 308-697-8624
[web site]
[email]
Airport management, Aviation fuel, Aircraft ground handling, Aircraft parking (ramp or tiedown), GPU / Power cart, Passenger terminal and lounge, ...

More info about Golden Plains Aviation
independent
100LL
FS $5.10 
 Updated 18-Mar-2019
 
   write
FS=Full service
Update Fuel Prices
 

Would you like to see your business listed on this page?

 If your business provides an interesting product or service to pilots, flight crews, aircraft, or users of the Cambridge Municipal Airport, you should consider listing it here.  To start the listing process, click on the button below
 
Add a business
 

Other Pages about Cambridge Municipal Airport

Update a link
 
Copyright © AirNav, LLC. All rights reserved. Privacy Policy  Contact